Airfield :
LOGIN :

Register | Disclaimer

   EN    FR    IT 

 










Legend :    VFR   Marginal VFR   IFR   Intensive IFR   Very Intensive IFR
Visi :
Ceiling :
>= 8 km
>= 3000ft
5 to 8 km
1000 to 3000 ft
1500m to 5 km
500 to 1000 ft
800 to 1500m
200 to 500 ft
< 800m
< 200 ft
Symbols :   Thunderstorms  Fog  Heavy snow  Heavy precipitations  Wind > 20 kt
SIGMETs :     Misc.  Thunderstorms  Icing  Turbulence  Mountain Waves  Volcanic Ashes






- Airport Elevation : 32 ft
- IATA code : LKZ


EGUL - RAF Lakenheath

CURRENT METAR :
  • 030900Z 16008KT 9999 BKN023 05/05 A2933 RMK AO2A SLP936 $

EXPIRED METARs :
  • 030756Z 16007KT 9999 -DZ BKN027 04/04 A2939 RMK AO2A RAB37E55DZB55 CIG 027V033 BKN V SCT SLP956 P0000 $
  • 030752Z 17006KT 9999 -RA BKN027 04/04 A2939 RMK AO2A RAB37 CIG 027V033 BKN V SCT SLP956 $
  • 030737Z 17007KT 9999 -RA BKN031 04/04 A2940 RMK AO2A RAB37 SLP960 $
  • 030656Z 17006KT 9999 SCT050 04/04 A2943 RMK AO2A SLP970 $

TAF AMD TAF EGUL
Valid from the 03 at 09:00 until the 04 at 11:00 UTC


030920Z 0309/0411 21009KT 9999 VCSH BKN020 QNH2938INS
BECMG 0310/0311 18012KT 6000 -SHRA BR BKN012 OVC030 620208 QNH2917INS
BECMG 0318/0319 20006KT 3200 -SHRA BR BKN005 OVC010 620208 QNH2875INS
BECMG 0403/0404 06009KT 2400 -SHRA BR BKN005 OVC010 620808 QNH2865INS
TEMPO 0406/0411 1600 -RASN BKN003 640206 TX06/0315Z TN05/0309Z



MET'MAP, your aeronautical weather chart ! - Copyright ORBIFLY December 2007 - Disclaimer

ORBIFLY MET'MAP TEAM :

Programming & Development : Alexandra Zaïnal
Concept & original design : Baudouin d'Aumeries
Assistance for programming : Marc-Olivier Méhu
Technical & hardware support : Manuel Goepfert

Contact : metmap@orbifly.com




SOURCES & CREDITS :

   NOAA